Time;durP1;ratioP1;P1;durP2;ratioP2;P2;SDS_P1;SDS_P2;PMS_P1;PMS_P2;Temp;Humidity;BMP_temperature;BMP_pressure;BME280_temperature;BME280_humidity;BME280_pressure;Samples;Min_cycle;Max_cycle;Signal;HPM_P1;HPM_P2
2022/05/29 12:27:23;;;;;;;8.90;3.30;;;20.50;64.50;;;;;;5074778;28;20616;-73
2022/05/29 12:30:01;;;;;;;18.93;13.07;;;20.50;67.60;;;;;;5052799;28;20436;-73
2022/05/29 12:32:32;;;;;;;374.00;355.13;;;21.30;63.90;;;;;;5059504;28;20789;-72
2022/05/29 12:35:23;;;;;;;16.17;8.93;;;20.80;63.60;;;;;;5055752;28;20502;-70
2022/05/29 12:38:19;;;;;;;40.97;37.93;;;20.80;60.30;;;;;;5040541;28;20420;-70
2022/05/29 12:41:22;;;;;;;388.37;366.40;;;20.80;60.60;;;;;;5070141;28;20417;-74
2022/05/29 12:44:17;;;;;;;221.43;209.60;;;19.50;63.30;;;;;;5052369;28;20451;-73
2022/05/29 12:47:05;;;;;;;406.27;385.17;;;19.50;64.50;;;;;;5051406;28;20466;-72
2022/05/29 12:49:47;;;;;;;27.33;13.00;;;19.10;59.20;;;;;;5061778;28;20436;-74
2022/05/29 12:53:00;;;;;;;15.20;5.63;;;18.60;60.10;;;;;;5051573;28;20451;-73
2022/05/29 12:55:46;;;;;;;13.13;4.57;;;18.20;59.90;;;;;;5049245;28;20429;-73
2022/05/29 12:58:25;;;;;;;20.23;6.53;;;17.80;61.20;;;;;;5050295;28;20575;-73
2022/05/29 13:01:17;;;;;;;18.33;6.20;;;17.50;60.60;;;;;;5047107;28;20460;-73
2022/05/29 13:04:13;;;;;;;19.20;7.07;;;17.30;62.00;;;;;;5052989;28;20537;-73
2022/05/29 13:06:59;;;;;;;15.97;6.10;;;16.90;62.80;;;;;;5062501;28;20467;-73
2022/05/29 13:09:43;;;;;;;23.77;10.17;;;16.80;62.30;;;;;;5055897;28;20437;-72
2022/05/29 13:12:47;;;;;;;31.40;11.30;;;16.90;65.90;;;;;;5054067;28;21024;-72
2022/05/29 13:15:23;;;;;;;20.70;7.93;;;17.00;65.20;;;;;;5049110;28;20850;-73
2022/05/29 13:18:02;;;;;;;19.87;7.50;;;16.90;63.40;;;;;;5067385;28;20425;-71
2022/05/29 13:20:28;;;;;;;13.10;4.53;;;16.90;64.40;;;;;;5062399;28;20429;-72
2022/05/29 13:23:04;;;;;;;17.17;5.83;;;17.50;67.60;;;;;;5064941;28;20432;-72
2022/05/29 13:25:35;;;;;;;14.37;5.20;;;18.60;64.30;;;;;;5052683;28;20218;-72
2022/05/29 13:28:47;;;;;;;28.27;9.63;;;20.90;62.20;;;;;;5054140;28;20917;-72
2022/05/29 13:31:15;;;;;;;286.73;270.87;;;21.20;61.90;;;;;;5046218;28;20425;-73
2022/05/29 13:33:46;;;;;;;51.77;48.17;;;22.40;62.60;;;;;;5056585;28;20610;-73
2022/05/29 13:36:42;;;;;;;22.00;12.20;;;22.90;56.00;;;;;;5043905;28;20479;-72
2022/05/29 13:39:29;;;;;;;15.03;5.70;;;22.90;53.40;;;;;;5039213;28;20433;-74
2022/05/29 13:42:01;;;;;;;20.07;7.00;;;22.80;53.50;;;;;;5039446;28;20824;-73
2022/05/29 13:44:38;;;;;;;32.57;24.43;;;23.00;54.20;;;;;;5063188;28;20414;-72
2022/05/29 13:47:19;;;;;;;20.03;6.97;;;23.20;55.90;;;;;;5063265;28;20508;-72
2022/05/29 13:50:03;;;;;;;15.87;5.67;;;23.90;54.50;;;;;;5047379;28;20506;-72
2022/05/29 13:52:39;;;;;;;46.97;42.90;;;24.80;59.00;;;;;;5041189;28;20517;-72
2022/05/29 13:55:23;;;;;;;28.63;12.30;;;26.00;55.30;;;;;;5030734;28;20417;-71
2022/05/29 14:03:58;;;;;;;22.20;8.23;;;25.60;49.10;;;;;;5038474;28;20430;-72
2022/05/29 14:06:32;;;;;;;21.70;9.27;;;24.70;49.70;;;;;;5036114;28;20457;-71
2022/05/29 14:09:03;;;;;;;25.73;9.20;;;25.20;48.80;;;;;;5039227;28;20446;-72
2022/05/29 14:11:50;;;;;;;17.67;6.60;;;25.20;48.80;;;;;;5045919;28;20941;-72
2022/05/29 14:14:34;;;;;;;18.93;6.33;;;25.80;50.90;;;;;;5041786;28;20440;-72
2022/05/29 14:17:25;;;;;;;24.87;15.83;;;26.70;52.00;;;;;;5051185;28;20440;-71
2022/05/29 14:20:04;;;;;;;31.13;11.90;;;27.40;48.00;;;;;;5039164;28;20575;-71
2022/05/29 14:23:18;;;;;;;19.97;15.13;;;27.40;47.70;;;;;;5036908;28;20475;-72
2022/05/29 14:26:12;;;;;;;23.93;13.63;;;27.20;46.90;;;;;;5013968;28;21045;-73
2022/05/29 14:28:50;;;;;;;22.87;8.83;;;25.80;46.00;;;;;;5045179;28;20446;-73
2022/05/29 14:31:54;;;;;;;21.53;9.20;;;25.80;46.40;;;;;;5040031;28;20436;-73
2022/05/29 14:35:16;;;;;;;22.40;8.40;;;24.70;44.30;;;;;;5037019;28;20422;-73
2022/05/29 14:37:59;;;;;;;10.23;4.23;;;25.00;47.80;;;;;;5011729;28;20532;-71
2022/05/29 14:40:31;;;;;;;11.50;4.50;;;25.00;47.90;;;;;;5039675;28;20418;-73
2022/05/29 14:42:57;;;;;;;19.23;6.50;;;24.70;46.10;;;;;;5045807;28;20495;-72
2022/05/29 14:45:29;;;;;;;17.33;6.20;;;24.50;47.50;;;;;;5022907;28;21004;-74
2022/05/29 14:48:22;;;;;;;11.27;4.33;;;24.50;46.10;;;;;;5044532;28;20420;-73
2022/05/29 14:51:04;;;;;;;30.63;9.87;;;24.40;47.00;;;;;;5025093;28;20453;-72
2022/05/29 14:53:54;;;;;;;17.37;6.23;;;24.30;47.70;;;;;;5037270;28;20429;-72
2022/05/29 14:56:41;;;;;;;21.20;7.60;;;25.10;45.20;;;;;;5043918;28;20444;-72
2022/05/29 14:59:37;;;;;;;16.97;6.00;;;25.90;45.90;;;;;;5038354;28;20586;-73
2022/05/29 15:02:08;;;;;;;21.30;7.30;;;25.10;47.10;;;;;;5028074;28;20444;-72
2022/05/29 15:04:40;;;;;;;21.33;7.53;;;24.60;49.10;;;;;;5029186;28;20425;-73
2022/05/29 15:10:33;;;;;;;14.63;5.43;;;25.40;46.40;;;;;;5028592;28;20453;-73
2022/05/29 15:13:12;;;;;;;19.90;7.23;;;25.50;48.10;;;;;;5011865;28;20468;-73
2022/05/29 15:15:54;;;;;;;16.80;6.20;;;25.60;47.10;;;;;;5028543;28;20429;-72
2022/05/29 15:18:30;;;;;;;21.23;7.53;;;25.70;46.70;;;;;;5027923;28;20494;-72
2022/05/29 15:26:47;;;;;;;28.17;10.83;;;25.20;48.10;;;;;;5028063;28;20473;-72
2022/05/29 15:29:19;;;;;;;24.27;8.93;;;25.00;46.40;;;;;;5027017;28;20974;-72
2022/05/29 15:31:48;;;;;;;23.23;8.40;;;25.10;48.10;;;;;;5034693;28;20422;-73
2022/05/29 15:34:32;;;;;;;18.40;6.57;;;25.10;47.30;;;;;;5028150;28;20429;-75
2022/05/29 15:37:00;;;;;;;22.60;7.77;;;25.10;46.40;;;;;;5028195;28;20426;-72
2022/05/29 15:39:35;;;;;;;19.60;7.10;;;24.50;46.20;;;;;;5034907;28;20495;-73
2022/05/29 15:42:23;;;;;;;25.80;9.67;;;24.40;47.30;;;;;;5037486;28;20423;-73
2022/05/29 15:45:01;;;;;;;16.73;7.00;;;24.50;47.40;;;;;;5034587;28;20417;-72
2022/05/29 15:47:52;;;;;;;26.20;9.47;;;24.40;46.30;;;;;;5030443;28;20448;-72
2022/05/29 15:50:27;;;;;;;17.43;6.17;;;24.50;45.50;;;;;;5040899;28;20421;-72
2022/05/29 15:52:58;;;;;;;23.90;8.53;;;24.50;48.70;;;;;;5036800;28;20437;-73
2022/05/29 15:55:38;;;;;;;30.27;11.40;;;24.40;44.80;;;;;;5040480;28;20427;-73
2022/05/29 15:58:13;;;;;;;19.63;7.00;;;23.70;42.90;;;;;;5035795;28;20447;-73
2022/05/29 16:01:00;;;;;;;21.43;7.90;;;23.60;44.30;;;;;;5037918;28;20514;-72
2022/05/29 16:03:30;;;;;;;24.50;8.63;;;23.10;47.20;;;;;;5043476;28;20431;-71
2022/05/29 16:06:10;;;;;;;21.40;7.73;;;22.40;46.10;;;;;;5029529;28;20981;-73
2022/05/29 16:08:36;;;;;;;28.30;11.53;;;21.10;47.40;;;;;;5035159;28;20473;-72
2022/05/29 16:11:04;;;;;;;17.97;6.80;;;20.90;47.80;;;;;;5036926;28;20422;-73
2022/05/29 16:13:52;;;;;;;29.47;10.10;;;20.40;49.30;;;;;;5048341;28;20421;-74
2022/05/29 16:16:22;;;;;;;25.03;9.70;;;20.10;50.20;;;;;;5048660;28;20473;-74
2022/05/29 16:19:18;;;;;;;21.47;8.70;;;19.50;51.20;;;;;;5038308;28;21034;-73
2022/05/29 16:21:53;;;;;;;18.67;7.70;;;19.50;51.60;;;;;;5034569;28;20492;-72
2022/05/29 16:24:49;;;;;;;16.83;8.93;;;19.30;51.40;;;;;;5038895;28;20426;-72
2022/05/29 16:27:27;;;;;;;24.87;9.33;;;19.00;51.30;;;;;;5047125;28;20464;-74
2022/05/29 16:30:19;;;;;;;23.93;9.20;;;18.70;52.60;;;;;;5035091;28;20539;-74
2022/05/29 16:32:50;;;;;;;18.83;8.10;;;18.40;56.80;;;;;;5032811;28;20724;-72
2022/05/29 16:35:26;;;;;;;18.03;7.17;;;17.90;59.60;;;;;;5032422;28;20571;-74
2022/05/29 16:49:47;;;;;;;215.97;207.03;;;16.00;69.20;;;;;;5040106;28;20506;-72
2022/05/29 16:52:25;;;;;;;280.23;268.83;;;16.00;71.60;;;;;;5033587;28;20441;-72
2022/05/29 16:54:58;;;;;;;80.90;76.53;;;15.80;69.90;;;;;;5036903;28;20811;-74
2022/05/29 16:57:34;;;;;;;242.90;231.63;;;15.80;68.70;;;;;;5017042;28;20501;-73
2022/05/29 17:00:21;;;;;;;24.37;16.20;;;15.70;66.70;;;;;;5036844;28;20440;-71
2022/05/29 17:02:52;;;;;;;127.80;120.10;;;15.70;64.30;;;;;;5039566;28;20420;-74
2022/05/29 17:05:28;;;;;;;268.87;255.37;;;15.70;65.10;;;;;;5030348;28;20561;-74
2022/05/29 17:08:06;;;;;;;260.97;247.23;;;15.90;65.50;;;;;;5031087;28;20436;-71
2022/05/29 17:10:41;;;;;;;57.40;53.63;;;15.90;66.10;;;;;;5039889;28;20424;-74
2022/05/29 17:13:07;;;;;;;152.10;144.50;;;16.10;68.10;;;;;;5047947;28;20431;-74
2022/05/29 17:15:35;;;;;;;324.57;306.83;;;16.20;66.20;;;;;;5036797;28;20429;-72
2022/05/29 17:18:02;;;;;;;95.40;88.40;;;17.10;67.30;;;;;;5018778;28;20548;-74
2022/05/29 17:20:28;;;;;;;242.97;229.57;;;17.10;68.00;;;;;;5042112;28;20424;-73
2022/05/29 17:23:07;;;;;;;179.77;166.10;;;17.40;67.70;;;;;;5045394;28;20423;-75
2022/05/29 17:25:51;;;;;;;168.73;156.43;;;17.40;68.40;;;;;;5049240;28;20499;-75
2022/05/29 17:28:19;;;;;;;197.87;182.40;;;17.60;69.70;;;;;;5034104;28;20612;-73
2022/05/29 17:31:18;;;;;;;196.10;182.43;;;17.60;70.10;;;;;;5046412;28;20429;-73
2022/05/29 17:33:50;;;;;;;167.20;156.03;;;17.80;67.70;;;;;;5018814;28;20434;-73
2022/05/29 17:36:29;;;;;;;367.03;344.90;;;17.90;67.60;;;;;;5039736;28;20436;-73
2022/05/29 17:39:03;;;;;;;185.07;171.40;;;17.70;68.20;;;;;;5045119;28;20456;-74
2022/05/29 17:41:33;;;;;;;157.00;144.50;;;17.60;67.40;;;;;;5041457;28;20968;-74
2022/05/29 17:44:01;;;;;;;176.57;164.07;;;17.30;66.60;;;;;;5049528;28;20429;-72
2022/05/29 17:46:36;;;;;;;199.03;184.87;;;17.00;68.70;;;;;;5035381;28;20474;-75
2022/05/29 17:49:23;;;;;;;15.10;6.20;;;16.50;71.80;;;;;;5039369;28;20448;-73
2022/05/29 17:51:53;;;;;;;93.20;85.23;;;16.30;72.90;;;;;;5036182;28;20483;-73
2022/05/29 17:54:51;;;;;;;144.37;132.30;;;16.20;72.60;;;;;;5034998;28;20437;-74
2022/05/29 17:57:20;;;;;;;64.80;57.97;;;16.00;74.20;;;;;;5025461;28;20437;-74
2022/05/29 17:59:46;;;;;;;146.93;133.57;;;15.60;74.60;;;;;;5043935;28;20808;-74
2022/05/29 18:02:13;;;;;;;121.73;110.47;;;15.40;75.30;;;;;;5042468;28;20414;-72
2022/05/29 18:04:41;;;;;;;22.00;10.03;;;15.50;77.30;;;;;;5038123;28;20429;-75
2022/05/29 18:07:10;;;;;;;127.47;116.70;;;15.30;79.30;;;;;;5036207;28;20450;-72
2022/05/29 18:09:36;;;;;;;15.20;5.90;;;15.20;79.80;;;;;;5043191;28;20532;-73
2022/05/29 18:12:02;;;;;;;16.93;10.10;;;15.20;81.40;;;;;;5050114;28;20560;-73
2022/05/29 18:14:28;;;;;;;139.90;127.27;;;15.10;82.80;;;;;;5032942;28;20422;-75
2022/05/29 18:16:53;;;;;;;134.40;122.27;;;15.00;84.20;;;;;;5046597;28;20972;-74
2022/05/29 18:19:19;;;;;;;156.63;143.37;;;;;;;;;;5039504;28;20207;-74
2022/05/29 18:21:45;;;;;;;144.67;131.50;;;14.70;87.20;;;;;;5038116;28;20178;-74
2022/05/29 18:24:11;;;;;;;141.30;128.00;;;14.60;89.30;;;;;;5043270;28;20429;-74
2022/05/29 18:26:36;;;;;;;125.80;114.27;;;14.40;89.90;;;;;;5042558;28;20219;-72
2022/05/29 18:29:03;;;;;;;137.63;126.03;;;14.40;90.60;;;;;;5037075;28;20230;-75
2022/05/29 18:31:30;;;;;;;133.07;121.03;;;14.40;90.90;;;;;;5041115;28;21030;-73
2022/05/29 18:33:56;;;;;;;155.07;141.53;;;14.30;91.70;;;;;;5042801;28;20422;-73
2022/05/29 18:36:23;;;;;;;140.73;128.13;;;14.20;92.80;;;;;;5037971;28;20441;-73
2022/05/29 18:38:49;;;;;;;332.23;313.73;;;14.30;93.50;;;;;;5044473;28;20979;-74
2022/05/29 18:41:15;;;;;;;17.57;8.10;;;14.30;93.90;;;;;;5043556;28;20429;-73
2022/05/29 18:43:41;;;;;;;30.03;23.27;;;15.20;94.60;;;;;;5032690;28;20433;-74
2022/05/29 18:46:08;;;;;;;261.10;249.83;;;14.30;93.80;;;;;;5042080;28;20214;-74
2022/05/29 18:48:34;;;;;;;192.87;177.17;;;14.20;94.10;;;;;;5033905;28;20211;-75
2022/05/29 18:51:00;;;;;;;145.73;132.60;;;14.20;95.00;;;;;;5041081;28;20460;-75
2022/05/29 18:53:25;;;;;;;124.90;113.50;;;14.30;95.20;;;;;;5044730;28;20938;-75
2022/05/29 18:55:56;;;;;;;131.33;119.43;;;14.20;96.30;;;;;;5055035;28;20179;-74
2022/05/29 18:58:23;;;;;;;188.00;170.97;;;14.10;96.40;;;;;;5032318;28;20212;-75
2022/05/29 19:00:52;;;;;;;147.47;134.40;;;14.10;97.00;;;;;;5042103;28;20425;-75
2022/05/29 19:03:18;;;;;;;133.43;121.73;;;14.20;97.20;;;;;;5070501;28;20421;-76
2022/05/29 19:05:44;;;;;;;151.53;138.07;;;14.10;98.10;;;;;;5058081;28;20522;-76
2022/05/29 19:08:09;;;;;;;7.73;3.43;;;14.10;98.50;;;;;;5062090;28;20440;-75
2022/05/29 19:10:36;;;;;;;7.53;4.10;;;14.10;99.10;;;;;;5057509;28;20195;-77
2022/05/29 19:13:02;;;;;;;9.73;3.77;;;14.10;99.40;;;;;;5058922;28;20210;-73
2022/05/29 19:15:27;;;;;;;4.97;2.77;;;14.00;99.50;;;;;;5042316;28;20425;-74
2022/05/29 19:18:12;;;;;;;6.80;2.93;;;13.90;99.90;;;;;;5049374;28;20658;-74
2022/05/29 19:20:52;;;;;;;6.20;2.77;;;13.80;99.90;;;;;;5037883;28;20251;-77
2022/05/29 19:23:18;;;;;;;10.00;4.17;;;13.80;99.90;;;;;;5040201;28;20424;-75
2022/05/29 19:25:44;;;;;;;11.10;3.97;;;13.70;99.90;;;;;;5059152;28;20919;-75
2022/05/29 19:28:11;;;;;;;12.13;4.67;;;13.70;99.90;;;;;;5038030;28;20532;-75
2022/05/29 19:30:37;;;;;;;12.83;4.37;;;13.50;99.90;;;;;;5061573;28;20421;-73
2022/05/29 19:33:03;;;;;;;15.87;5.50;;;13.50;99.90;;;;;;5061082;28;20417;-77
2022/05/29 19:35:33;;;;;;;17.90;5.80;;;13.40;99.90;;;;;;5067464;28;20409;-75
2022/05/29 19:37:59;;;;;;;12.73;3.90;;;13.30;99.90;;;;;;5064482;28;20536;-74
2022/05/29 19:40:25;;;;;;;11.90;4.50;;;13.20;99.90;;;;;;5035792;28;20429;-74
2022/05/29 19:42:51;;;;;;;14.63;5.27;;;13.10;99.90;;;;;;5047577;28;20678;-74
2022/05/29 19:45:19;;;;;;;13.80;4.73;;;13.00;99.90;;;;;;5043254;28;20430;-74
2022/05/29 19:47:47;;;;;;;9.67;4.10;;;13.00;99.90;;;;;;5045520;28;20468;-74
2022/05/29 19:50:15;;;;;;;13.80;5.10;;;12.90;99.90;;;;;;5039935;28;20457;-73
2022/05/29 19:52:41;;;;;;;12.23;4.40;;;12.90;99.90;;;;;;5032682;28;20496;-74
2022/05/29 19:55:10;;;;;;;11.10;4.23;;;12.80;99.90;;;;;;5042758;28;20422;-75
2022/05/29 19:57:36;;;;;;;22.13;7.90;;;12.80;99.90;;;;;;5040402;28;20535;-75
2022/05/29 20:00:04;;;;;;;18.10;6.40;;;12.80;99.90;;;;;;5045978;28;20505;-75
2022/05/29 20:02:30;;;;;;;17.87;6.90;;;12.80;99.90;;;;;;5034409;28;20663;-74
2022/05/29 20:04:56;;;;;;;18.20;6.37;;;12.60;99.90;;;;;;5039785;28;20434;-75
2022/05/29 20:07:21;;;;;;;13.70;5.43;;;12.60;99.90;;;;;;5038933;28;20199;-74
2022/05/29 20:09:47;;;;;;;14.43;5.53;;;12.50;99.90;;;;;;5033472;28;20781;-75
2022/05/29 20:12:12;;;;;;;15.80;5.83;;;12.50;99.90;;;;;;5041486;28;20648;-74
2022/05/29 20:14:42;;;;;;;17.30;6.47;;;12.40;99.90;;;;;;5030398;28;20282;-71
2022/05/29 20:17:12;;;;;;;16.77;6.70;;;12.40;99.90;;;;;;5038996;28;20198;-73
2022/05/29 20:19:38;;;;;;;22.87;7.40;;;12.30;99.90;;;;;;5034788;28;20465;-73
2022/05/29 20:22:04;;;;;;;14.23;5.37;;;12.40;99.90;;;;;;5034872;28;20455;-73
2022/05/29 20:24:29;;;;;;;17.30;6.13;;;12.30;99.90;;;;;;5035551;28;20182;-76
2022/05/29 20:26:55;;;;;;;17.73;6.70;;;12.20;99.90;;;;;;5035930;28;20264;-73
2022/05/29 20:29:21;;;;;;;13.03;4.83;;;12.20;99.90;;;;;;5037298;28;20206;-75
2022/05/29 20:31:47;;;;;;;17.33;6.47;;;12.20;99.90;;;;;;5036745;28;20606;-74
2022/05/29 20:34:14;;;;;;;15.07;5.53;;;12.20;99.90;;;;;;5037990;28;20520;-74
2022/05/29 20:36:41;;;;;;;19.50;7.10;;;12.20;99.90;;;;;;5038693;28;20187;-75
2022/05/29 20:39:08;;;;;;;14.60;5.50;;;12.10;99.90;;;;;;5041889;28;20527;-75
2022/05/29 20:41:35;;;;;;;14.03;5.60;;;12.10;99.90;;;;;;5036403;28;20469;-74
2022/05/29 20:44:01;;;;;;;22.20;8.23;;;12.00;99.90;;;;;;5039439;28;20436;-74
2022/05/29 20:49:15;;;;;;;12.63;5.27;;;11.80;99.90;;;;;;5036592;28;20453;-75
2022/05/29 20:51:42;;;;;;;18.07;6.47;;;11.90;99.90;;;;;;5034698;28;20469;-74
2022/05/29 20:54:17;;;;;;;20.23;7.87;;;11.80;99.90;;;;;;5034364;28;20890;-74
2022/05/29 20:56:43;;;;;;;15.47;6.80;;;11.80;99.90;;;;;;5038384;28;20595;-74
2022/05/29 20:59:10;;;;;;;13.23;6.13;;;11.80;99.90;;;;;;5047110;28;20510;-74
2022/05/29 21:01:36;;;;;;;22.07;8.83;;;11.80;99.90;;;;;;5042528;28;20443;-74
2022/05/29 21:04:02;;;;;;;18.57;8.33;;;12.60;99.90;;;;;;5034407;28;20433;-73
2022/05/29 21:06:27;;;;;;;21.30;15.77;;;11.60;99.90;;;;;;5038988;28;20699;-74
2022/05/29 21:08:54;;;;;;;135.77;124.57;;;11.60;99.90;;;;;;5037888;28;20211;-74
2022/05/29 21:11:19;;;;;;;164.83;150.57;;;11.50;99.90;;;;;;5040771;28;20210;-75
2022/05/29 21:13:45;;;;;;;239.73;223.20;;;11.60;99.90;;;;;;5036398;28;20462;-73
2022/05/29 21:16:15;;;;;;;174.63;158.83;;;11.40;99.90;;;;;;5036412;28;20218;-72
2022/05/29 21:18:44;;;;;;;86.43;81.57;;;11.50;99.90;;;;;;5035919;28;20226;-74
2022/05/29 21:21:18;;;;;;;70.73;67.00;;;11.40;99.90;;;;;;5033956;28;20962;-74
2022/05/29 21:23:44;;;;;;;22.07;20.37;;;11.40;99.90;;;;;;5036077;28;20401;-75
2022/05/29 21:26:09;;;;;;;56.23;51.83;;;11.30;99.90;;;;;;5032838;28;20519;-73
2022/05/29 21:28:35;;;;;;;180.70;169.93;;;11.30;99.90;;;;;;5037427;28;20230;-74
2022/05/29 21:31:03;;;;;;;46.37;42.30;;;12.00;99.90;;;;;;5034581;28;20187;-72
2022/05/29 21:33:30;;;;;;;21.10;9.90;;;11.30;99.90;;;;;;5045605;28;20213;-72
2022/05/29 21:35:56;;;;;;;196.43;184.17;;;11.30;99.90;;;;;;5045134;28;20446;-72
2022/05/29 21:38:24;;;;;;;62.07;58.83;;;11.20;99.90;;;;;;5061108;28;20975;-74
2022/05/29 21:40:55;;;;;;;123.00;114.80;;;11.20;99.90;;;;;;5055789;28;20182;-73
2022/05/29 21:43:20;;;;;;;56.30;51.90;;;11.10;99.90;;;;;;5040142;28;20508;-73
2022/05/29 21:45:46;;;;;;;75.13;70.60;;;11.00;99.90;;;;;;5047441;28;20551;-74
2022/05/29 21:48:14;;;;;;;21.47;13.13;;;11.00;99.90;;;;;;5042684;28;20789;-73
2022/05/29 21:50:40;;;;;;;231.83;220.33;;;11.00;99.90;;;;;;5047213;28;20660;-71
2022/05/29 21:53:06;;;;;;;244.47;227.10;;;10.90;99.90;;;;;;5044691;28;20420;-74
2022/05/29 21:55:31;;;;;;;193.23;179.50;;;10.80;99.90;;;;;;5043033;28;20185;-73
2022/05/29 21:57:57;;;;;;;199.67;187.93;;;10.80;99.90;;;;;;5045223;28;20182;-72
2022/05/29 22:00:40;;;;;;;13.60;5.37;;;10.70;99.90;;;;;;5052286;28;20186;-73
2022/05/29 22:03:06;;;;;;;9.60;4.10;;;10.80;99.90;;;;;;5040387;28;20183;-72
2022/05/29 22:05:36;;;;;;;12.07;4.73;;;10.70;99.90;;;;;;5035980;28;20489;-72
2022/05/29 22:08:03;;;;;;;17.10;5.90;;;10.60;99.90;;;;;;5039809;28;21029;-72
2022/05/29 22:10:28;;;;;;;18.43;6.97;;;10.60;99.90;;;;;;5048683;28;20420;-73
2022/05/29 22:12:54;;;;;;;16.10;7.10;;;10.60;99.90;;;;;;5046175;28;20418;-73
2022/05/29 22:15:19;;;;;;;19.50;13.13;;;10.70;99.90;;;;;;5042672;28;20182;-72
2022/05/29 22:17:45;;;;;;;19.57;11.47;;;10.60;99.90;;;;;;5041821;28;20541;-72
2022/05/29 22:20:11;;;;;;;21.57;14.17;;;10.60;99.90;;;;;;5039447;28;20211;-71
2022/05/29 22:22:40;;;;;;;192.03;177.17;;;10.50;99.90;;;;;;5040014;28;20176;-70
2022/05/29 22:25:06;;;;;;;190.30;174.10;;;10.40;99.90;;;;;;5041080;28;20477;-74
2022/05/29 22:27:32;;;;;;;193.30;179.93;;;10.40;99.90;;;;;;5039671;28;20431;-74
2022/05/29 22:29:57;;;;;;;21.40;7.63;;;10.40;99.90;;;;;;5048018;28;20425;-75
2022/05/29 22:32:57;;;;;;;17.53;6.70;;;10.30;99.90;;;;;;5068163;28;20174;-74
2022/05/29 22:35:23;;;;;;;11.40;5.43;;;10.30;99.90;;;;;;5052372;28;20203;-75
2022/05/29 22:37:48;;;;;;;18.90;8.60;;;10.20;99.90;;;;;;5058383;28;20426;-74
2022/05/29 22:40:18;;;;;;;17.17;7.57;;;10.20;99.90;;;;;;5033540;28;20198;-72
2022/05/29 22:42:44;;;;;;;27.77;14.07;;;10.30;99.90;;;;;;5040003;28;20175;-71
2022/05/29 22:45:10;;;;;;;103.90;97.37;;;10.20;99.90;;;;;;5045869;28;20418;-72
2022/05/29 22:47:48;;;;;;;183.40;168.63;;;10.20;99.90;;;;;;5033550;28;20434;-74
